createdAt,value
2022-09-15T00:03:13.603Z,65.31
2022-09-15T00:08:15.518Z,62.91
2022-09-15T00:13:16.951Z,61.40
2022-09-15T00:18:18.147Z,59.89
2022-09-15T00:23:19.380Z,56.75
2022-09-15T00:28:22.140Z,58.31
2022-09-15T00:33:23.411Z,60.10
2022-09-15T00:38:25.109Z,66.09
2022-09-15T00:44:03.954Z,64.52
2022-09-15T00:49:14.818Z,62.48
2022-09-15T00:54:38.664Z,61.01
2022-09-15T00:59:41.980Z,59.80
2022-09-15T01:04:43.767Z,56.64
2022-09-15T01:09:51.296Z,58.42
2022-09-15T01:14:52.899Z,59.61
2022-09-15T01:20:31.813Z,66.15
2022-09-15T01:26:02.682Z,65.41
2022-09-15T01:31:28.745Z,62.42
2022-09-15T01:36:47.583Z,60.60
2022-09-15T01:42:00.714Z,57.01
2022-09-15T01:47:07.745Z,57.33
2022-09-15T01:52:08.902Z,60.53
2022-09-15T01:57:10.057Z,66.61
2022-09-15T02:02:19.456Z,66.79
2022-09-15T02:07:34.859Z,64.45
2022-09-15T02:12:51.035Z,62.14
2022-09-15T02:17:54.572Z,60.47
2022-09-15T02:23:00.884Z,57.05
2022-09-15T02:28:08.310Z,58.30
2022-09-15T02:33:16.328Z,64.54
2022-09-15T02:38:17.549Z,64.72
2022-09-15T02:43:18.758Z,62.53
2022-09-15T02:48:20.537Z,60.86
2022-09-15T02:53:21.658Z,59.89
2022-09-15T02:58:23.500Z,56.92
2022-09-15T03:03:24.668Z,57.90
2022-09-15T03:08:28.253Z,59.97
2022-09-15T03:13:29.612Z,67.43
2022-09-15T03:18:30.798Z,66.18
2022-09-15T03:23:32.568Z,63.82
2022-09-15T03:28:35.181Z,62.54
2022-09-15T03:33:36.893Z,61.26
2022-09-15T03:38:38.052Z,60.60
2022-09-15T03:43:39.586Z,58.32
2022-09-15T03:48:41.043Z,58.26
2022-09-15T03:53:43.396Z,60.19
2022-09-15T03:58:44.626Z,66.63
2022-09-15T04:03:51.050Z,67.84
2022-09-15T04:08:55.072Z,63.69
2022-09-15T04:13:59.828Z,62.25
2022-09-15T04:19:01.485Z,61.73
2022-09-15T04:24:04.429Z,61.15
2022-09-15T04:29:12.367Z,60.92
2022-09-15T04:34:13.636Z,60.42
2022-09-15T04:39:14.799Z,60.80
2022-09-15T04:44:16.168Z,60.47
2022-09-15T04:49:17.515Z,60.27
2022-09-15T04:54:19.527Z,57.02
2022-09-15T04:59:20.747Z,58.32
2022-09-15T05:04:22.062Z,65.76
2022-09-15T05:09:23.783Z,64.34
2022-09-15T05:14:24.982Z,62.48
2022-09-15T05:19:28.735Z,61.69
2022-09-15T05:24:30.082Z,61.22
2022-09-15T05:29:31.383Z,60.06
2022-09-15T05:34:32.552Z,56.36
2022-09-15T05:39:33.766Z,57.22
2022-09-15T05:44:37.965Z,60.26
2022-09-15T05:49:39.154Z,66.45
2022-09-15T05:54:40.308Z,64.21
2022-09-15T05:59:43.207Z,62.28
2022-09-15T06:04:46.864Z,60.15
2022-09-15T06:09:48.497Z,57.50
2022-09-15T06:14:50.393Z,60.26
2022-09-15T06:19:51.817Z,69.79
2022-09-15T06:24:53.288Z,61.15
2022-09-15T06:29:54.433Z,60.81
2022-09-15T06:34:55.683Z,55.92
2022-09-15T06:39:56.932Z,57.67
2022-09-15T06:44:58.820Z,61.84
2022-09-15T06:50:00.416Z,55.94
2022-09-15T06:55:01.688Z,51.06
2022-09-15T07:00:05.693Z,52.66
2022-09-15T07:05:07.226Z,61.40
2022-09-15T07:10:09.344Z,49.33
2022-09-15T07:15:11.043Z,51.43
2022-09-15T07:20:13.261Z,52.39
2022-09-15T07:25:15.133Z,55.13
2022-09-15T07:30:16.376Z,57.97
2022-09-15T07:35:18.788Z,54.81
2022-09-15T07:40:21.365Z,56.41
2022-09-15T07:45:22.676Z,57.51
2022-09-15T07:50:23.937Z,57.24
2022-09-15T07:55:25.081Z,56.10
2022-09-15T08:00:27.375Z,54.59
2022-09-15T08:05:28.693Z,54.37
2022-09-15T08:10:29.887Z,55.77
2022-09-15T08:15:31.407Z,57.49
2022-09-15T08:20:33.069Z,57.58
2022-09-15T08:25:34.645Z,57.70
2022-09-15T08:30:38.098Z,55.45
2022-09-15T08:35:39.220Z,54.52
2022-09-15T08:40:45.321Z,54.21
2022-09-15T08:45:54.896Z,53.87
2022-09-15T08:51:03.217Z,53.73
2022-09-15T08:56:16.233Z,53.85
2022-09-15T09:01:42.299Z,53.75
2022-09-15T09:07:09.815Z,54.44
2022-09-15T09:12:28.842Z,54.76
2022-09-15T09:18:08.067Z,53.62
2022-09-15T09:23:16.905Z,52.32
2022-09-15T09:28:40.488Z,52.71
2022-09-15T09:33:55.584Z,52.12
2022-09-15T09:38:57.879Z,51.95
2022-09-15T09:43:59.084Z,52.41
2022-09-15T09:49:23.055Z,51.51
2022-09-15T09:54:27.902Z,52.31
2022-09-15T09:59:35.094Z,52.66
2022-09-15T10:04:41.445Z,52.77
2022-09-15T10:10:18.671Z,53.48
2022-09-15T10:15:24.453Z,53.94
2022-09-15T10:20:34.765Z,54.51
2022-09-15T10:25:58.580Z,54.63
2022-09-15T10:31:02.491Z,55.07
2022-09-15T10:36:05.383Z,55.81
2022-09-15T10:41:26.854Z,55.95
2022-09-15T10:46:41.784Z,56.46
2022-09-15T10:51:49.560Z,56.80
2022-09-15T10:56:57.190Z,57.67
2022-09-15T11:02:13.740Z,57.73
2022-09-15T11:07:17.684Z,57.67
2022-09-15T11:12:40.894Z,56.95
2022-09-15T11:18:19.487Z,56.96
2022-09-15T11:23:33.979Z,57.37
2022-09-15T11:28:39.074Z,57.97
2022-09-15T11:33:54.459Z,58.09
2022-09-15T11:39:21.182Z,57.49
2022-09-15T11:44:27.054Z,57.43
2022-09-15T11:49:39.910Z,57.40
2022-09-15T11:54:48.134Z,56.85
2022-09-15T12:00:11.596Z,57.21
2022-09-15T12:05:23.584Z,55.56
2022-09-15T12:10:31.073Z,55.32
2022-09-15T12:15:33.991Z,55.32
2022-09-15T12:20:52.796Z,55.43
2022-09-15T12:25:53.837Z,54.93
2022-09-15T12:31:32.847Z,54.17
2022-09-15T12:36:53.550Z,54.72
2022-09-15T12:42:05.748Z,53.72
2022-09-15T12:47:19.272Z,53.28
2022-09-15T12:52:24.312Z,52.71
2022-09-15T12:57:33.687Z,52.23
2022-09-15T13:02:46.901Z,51.73
2022-09-15T13:07:58.085Z,51.28
2022-09-15T13:13:25.275Z,51.05
2022-09-15T13:18:31.586Z,50.71
2022-09-15T13:23:37.782Z,50.26
2022-09-15T13:28:39.333Z,50.29
2022-09-15T13:39:17.218Z,50.65
2022-09-15T13:44:56.784Z,50.21
2022-09-15T13:50:16.869Z,50.10
2022-09-15T13:55:26.980Z,50.10
2022-09-15T14:00:43.356Z,50.60
2022-09-15T14:05:45.416Z,50.75
2022-09-15T14:10:57.757Z,50.65
2022-09-15T14:16:00.815Z,50.42
2022-09-15T14:21:04.794Z,49.63
2022-09-15T14:26:12.430Z,51.14
2022-09-15T14:31:13.869Z,52.09
2022-09-15T14:36:26.990Z,52.15
2022-09-15T14:41:31.999Z,52.84
2022-09-15T14:46:37.741Z,53.55
2022-09-15T14:51:45.285Z,54.26
2022-09-15T14:56:49.630Z,55.02
2022-09-15T15:02:47.937Z,55.89
2022-09-15T15:07:50.630Z,55.47
2022-09-15T15:13:05.048Z,55.68
2022-09-15T15:18:31.663Z,55.90
2022-09-15T15:23:33.356Z,56.09
2022-09-15T15:28:36.301Z,56.22
2022-09-15T15:33:45.713Z,56.00
2022-09-15T15:38:56.078Z,55.91
2022-09-15T15:44:08.423Z,55.71
2022-09-15T15:49:14.446Z,55.29
2022-09-15T15:54:15.646Z,54.90
2022-09-15T15:59:17.252Z,55.02
2022-09-15T16:04:19.235Z,55.02
2022-09-15T16:09:20.434Z,54.96
2022-09-15T16:14:21.544Z,54.99
2022-09-15T16:19:22.736Z,55.32
2022-09-15T16:24:24.299Z,55.56
2022-09-15T16:29:29.135Z,55.58
2022-09-15T16:34:30.574Z,55.65
2022-09-15T16:39:31.798Z,55.77
2022-09-15T16:44:33.425Z,55.82
2022-09-15T16:49:36.813Z,55.76
2022-09-15T16:54:38.383Z,55.94
2022-09-15T16:59:40.593Z,56.01
2022-09-15T17:04:41.749Z,56.24
2022-09-15T17:09:43.300Z,56.56
2022-09-15T17:14:44.485Z,57.01
2022-09-15T17:19:45.929Z,57.56
2022-09-15T17:24:47.352Z,57.48
2022-09-15T17:29:49.294Z,57.41
2022-09-15T17:34:51.167Z,57.12
2022-09-15T17:39:58.146Z,57.63
2022-09-15T17:45:00.359Z,57.86
2022-09-15T17:50:01.732Z,57.70
2022-09-15T17:55:11.181Z,58.06
2022-09-15T18:00:13.777Z,58.60
2022-09-15T18:05:35.332Z,58.66
2022-09-15T18:10:37.720Z,58.91
2022-09-15T18:15:39.243Z,59.37
2022-09-15T18:20:41.510Z,59.69
2022-09-15T18:25:43.540Z,60.58
2022-09-15T18:30:47.216Z,60.36
2022-09-15T18:35:50.836Z,60.74
2022-09-15T18:40:55.218Z,61.38
2022-09-15T18:46:00.689Z,69.95
2022-09-15T18:51:07.770Z,63.57
2022-09-15T18:56:10.759Z,58.57
2022-09-15T19:01:12.097Z,56.34
2022-09-15T19:06:14.662Z,57.40
2022-09-15T19:11:16.589Z,58.42
2022-09-15T19:16:22.736Z,59.31
2022-09-15T19:21:27.396Z,59.70
2022-09-15T19:26:29.102Z,60.62
2022-09-15T19:31:30.485Z,65.54
2022-09-15T19:36:31.999Z,65.17
2022-09-15T19:41:33.494Z,63.29
2022-09-15T19:46:34.672Z,61.41
2022-09-15T19:51:35.733Z,55.62
2022-09-15T19:56:38.051Z,55.17
2022-09-15T20:01:39.290Z,56.98
2022-09-15T20:06:42.114Z,58.83
2022-09-15T20:11:43.198Z,59.90
2022-09-15T20:16:44.561Z,60.67
2022-09-15T20:21:50.734Z,67.27
2022-09-15T20:26:53.179Z,64.56
2022-09-15T20:31:54.468Z,63.56
2022-09-15T20:36:55.656Z,59.95
2022-09-15T20:41:57.332Z,56.11
2022-09-15T20:46:58.493Z,56.65
2022-09-15T20:51:59.604Z,59.74
2022-09-15T20:57:00.994Z,59.48
2022-09-15T21:02:06.497Z,68.10
2022-09-15T21:07:07.751Z,65.74
2022-09-15T21:12:09.784Z,62.85
2022-09-15T21:17:11.074Z,61.27
2022-09-15T21:22:14.158Z,54.88
2022-09-15T21:27:33.776Z,56.29
2022-09-15T21:32:35.718Z,57.55
2022-09-15T21:37:36.853Z,65.81
2022-09-15T21:42:38.661Z,64.90
2022-09-15T21:47:39.924Z,60.55
2022-09-15T21:52:40.967Z,54.57
2022-09-15T21:57:42.072Z,54.98
2022-09-15T22:02:43.245Z,58.26
2022-09-15T22:07:44.321Z,66.77
2022-09-15T22:12:45.484Z,64.83
2022-09-15T22:17:46.651Z,61.80
2022-09-15T22:22:48.122Z,59.38
2022-09-15T22:27:49.271Z,56.92
2022-09-15T22:32:51.983Z,58.68
2022-09-15T22:37:53.487Z,62.78
2022-09-15T22:42:54.610Z,68.90
2022-09-15T22:47:55.771Z,62.76
2022-09-15T22:52:56.833Z,58.57
2022-09-15T22:57:58.221Z,57.66
2022-09-15T23:03:01.261Z,61.97
2022-09-15T23:08:02.903Z,66.88
2022-09-15T23:13:04.162Z,64.41
2022-09-15T23:18:05.241Z,61.20
2022-09-15T23:23:06.476Z,57.59
2022-09-15T23:28:07.612Z,58.90
2022-09-15T23:33:09.187Z,60.93
2022-09-15T23:38:10.349Z,66.86
2022-09-15T23:43:12.023Z,67.38
2022-09-15T23:48:13.536Z,62.56
2022-09-15T23:53:14.698Z,64.35
2022-09-15T23:58:16.768Z,64.01
